Time;durP1;ratioP1;P1;durP2;ratioP2;P2;SDS_P1;SDS_P2;PMS_P1;PMS_P2;Temp;Humidity;BMP_temperature;BMP_pressure;BME280_temperature;BME280_humidity;BME280_pressure;Samples;Min_cycle;Max_cycle;Signal;HPM_P1;HPM_P2
2022/03/05 00:01:29;;;;;;;34.47;15.73;;;1.60;50.90;;;2.15;44.18;97814.06;6235616;23;20034;-37
2022/03/05 00:03:57;;;;;;;31.87;14.60;;;1.60;50.90;;;2.12;44.84;97807.25;6233055;23;20034;-37
2022/03/05 00:06:25;;;;;;;22.57;10.23;;;1.60;51.20;;;2.11;44.74;97813.47;6233751;23;20030;-37
2022/03/05 00:08:53;;;;;;;24.90;11.50;;;1.60;51.30;;;2.09;44.44;97804.81;6235551;23;20022;-36
2022/03/05 00:11:21;;;;;;;15.50;9.90;;;1.60;51.20;;;2.06;44.57;97815.56;6237621;23;20020;-36
2022/03/05 00:13:49;;;;;;;17.07;9.70;;;1.50;51.00;;;2.01;44.57;97811.56;6208933;23;20023;-36
2022/03/05 00:16:17;;;;;;;13.97;7.80;;;1.40;51.30;;;1.97;44.59;97811.75;6247741;23;20038;-37
2022/03/05 00:18:45;;;;;;;17.10;9.40;;;1.40;51.30;;;1.98;44.72;97810.00;6237564;23;20030;-36
2022/03/05 00:21:13;;;;;;;15.77;8.90;;;1.40;51.50;;;1.97;45.30;97810.91;6236355;23;20036;-36
2022/03/05 00:23:40;;;;;;;15.43;9.60;;;1.40;51.40;;;1.93;44.73;97814.69;6237263;23;20554;-36
2022/03/05 00:26:11;;;;;;;18.80;8.93;;;1.40;51.50;;;1.91;44.46;97809.53;6236651;23;20024;-36
2022/03/05 00:28:39;;;;;;;13.70;9.00;;;1.40;51.30;;;1.90;44.76;97814.88;6235815;23;20030;-36
2022/03/05 00:31:07;;;;;;;15.90;10.17;;;1.40;51.50;;;1.86;45.52;97819.53;6237517;23;20328;-36
2022/03/05 00:33:35;;;;;;;16.00;9.23;;;1.30;51.60;;;1.79;45.21;97812.16;6234980;23;20024;-36
2022/03/05 00:36:03;;;;;;;17.13;10.50;;;1.20;52.10;;;1.77;45.49;97812.25;6238259;23;20020;-36
2022/03/05 00:38:31;;;;;;;14.33;8.77;;;1.20;52.30;;;1.77;45.47;97817.50;6236255;23;20024;-36
2022/03/05 00:40:59;;;;;;;19.73;10.47;;;1.20;52.20;;;1.77;45.37;97812.25;6237757;23;20449;-36
2022/03/05 00:43:27;;;;;;;20.63;10.70;;;1.20;52.20;;;1.74;45.26;97812.47;6237156;23;20024;-36
2022/03/05 00:45:55;;;;;;;22.33;12.03;;;1.20;52.00;;;1.71;45.17;97816.13;6236590;23;20328;-36
2022/03/05 00:48:23;;;;;;;23.27;13.63;;;1.20;52.00;;;1.71;45.06;97817.94;6237282;23;20222;-36
2022/03/05 00:50:51;;;;;;;28.87;14.20;;;1.20;52.10;;;1.70;44.86;97821.47;6236762;23;20016;-36
2022/03/05 00:53:21;;;;;;;26.47;13.50;;;1.10;52.10;;;1.67;45.47;97819.91;6237344;23;20034;-36
2022/03/05 00:55:48;;;;;;;24.97;13.73;;;1.10;52.10;;;1.62;45.62;97816.72;6235834;23;20020;-36
2022/03/05 00:58:16;;;;;;;32.07;16.27;;;1.10;52.00;;;1.57;45.56;97813.56;6237424;23;20016;-36
2022/03/05 01:00:44;;;;;;;24.90;13.90;;;1.00;52.50;;;1.57;45.23;97821.44;6236354;23;20305;-36
2022/03/05 01:03:12;;;;;;;26.73;13.83;;;1.00;52.50;;;1.57;45.26;97821.44;6210328;23;20405;-36
2022/03/05 01:05:40;;;;;;;26.70;13.60;;;1.00;52.50;;;1.53;45.26;97812.94;6236259;23;20366;-36
2022/03/05 01:08:09;;;;;;;26.40;14.33;;;1.00;52.70;;;1.52;45.73;97819.13;6235007;23;20194;-37
2022/03/05 01:10:37;;;;;;;24.50;14.33;;;1.00;52.40;;;1.52;45.84;97818.28;6232881;23;20030;-37
2022/03/05 01:13:04;;;;;;;22.27;13.10;;;1.00;52.20;;;1.50;45.26;97815.75;6237291;23;20020;-36
2022/03/05 01:15:32;;;;;;;18.53;11.13;;;1.00;52.30;;;1.47;45.17;97809.88;6235569;23;20213;-37
2022/03/05 01:18:00;;;;;;;20.03;10.47;;;0.90;52.60;;;1.41;46.04;97813.72;6237053;23;20729;-36
2022/03/05 01:20:28;;;;;;;20.27;11.43;;;0.80;52.40;;;1.33;45.64;97805.53;6236487;23;20354;-37
2022/03/05 01:22:56;;;;;;;20.27;11.10;;;0.80;52.80;;;1.30;45.95;97803.94;6236879;23;20186;-37
2022/03/05 01:25:24;;;;;;;27.73;12.10;;;0.70;53.10;;;1.25;45.76;97805.19;6236802;23;20339;-37
2022/03/05 01:27:52;;;;;;;17.80;10.90;;;0.70;53.40;;;1.23;46.44;97804.44;6235796;23;20024;-37
2022/03/05 01:30:21;;;;;;;19.30;10.87;;;0.60;53.80;;;1.18;46.13;97802.09;6209317;23;20031;-37
2022/03/05 01:32:48;;;;;;;21.47;11.23;;;0.60;53.90;;;1.17;46.42;97800.44;6236976;23;20341;-37
2022/03/05 01:35:16;;;;;;;22.77;10.13;;;0.60;53.90;;;1.15;46.11;97802.31;6236355;23;20012;-37
2022/03/05 01:37:45;;;;;;;21.27;11.13;;;0.60;53.70;;;1.09;46.68;97800.09;6236100;23;20023;-37
2022/03/05 01:40:13;;;;;;;23.00;10.33;;;0.50;54.10;;;1.04;46.48;97804.78;6209617;23;20030;-36
2022/03/05 01:42:41;;;;;;;17.33;9.83;;;0.50;54.30;;;1.02;46.75;97794.38;6236797;23;20030;-36
2022/03/05 01:45:11;;;;;;;20.23;9.73;;;0.50;54.40;;;1.02;46.62;97806.66;6235032;23;20020;-36
2022/03/05 01:47:40;;;;;;;19.70;11.17;;;0.50;54.30;;;1.00;47.21;97803.28;6236065;23;20031;-37
2022/03/05 01:50:09;;;;;;;19.87;10.60;;;0.40;53.80;;;0.93;47.16;97802.81;6235869;23;20619;-37
2022/03/05 01:52:37;;;;;;;19.33;9.90;;;0.40;54.10;;;0.88;46.61;97797.06;6236357;23;20020;-37
2022/03/05 01:55:06;;;;;;;18.97;9.80;;;0.30;54.40;;;0.86;46.48;97805.00;6234308;23;20012;-37
2022/03/05 01:57:35;;;;;;;18.23;9.23;;;0.30;54.70;;;0.88;47.18;97805.75;6234845;23;20252;-36
2022/03/05 02:00:06;;;;;;;19.57;10.93;;;0.30;54.30;;;0.88;46.92;97804.91;6235541;23;20024;-36
2022/03/05 02:02:39;;;;;;;16.40;9.50;;;0.30;54.40;;;0.86;47.03;97801.56;6247220;23;20024;-37
2022/03/05 02:05:09;;;;;;;17.77;10.60;;;0.30;54.20;;;0.85;47.14;97803.31;6209147;23;20024;-36
2022/03/05 02:07:37;;;;;;;17.80;9.70;;;0.30;53.90;;;0.82;46.54;97794.81;6236815;23;20024;-36
2022/03/05 02:10:08;;;;;;;20.20;9.60;;;0.30;54.10;;;0.79;47.35;97795.84;6235661;23;20027;-36
2022/03/05 02:12:38;;;;;;;13.30;8.63;;;0.30;54.40;;;0.78;47.11;97796.78;6244368;23;20026;-37
2022/03/05 02:15:08;;;;;;;14.97;8.90;;;0.20;54.30;;;0.77;46.45;97800.34;6235623;23;20239;-37
2022/03/05 02:17:37;;;;;;;16.53;8.07;;;0.20;54.20;;;0.73;47.14;97799.69;6235752;23;20027;-36
2022/03/05 02:20:07;;;;;;;14.70;8.27;;;0.20;54.40;;;0.72;47.36;97803.25;6234954;23;20034;-37
2022/03/05 02:22:35;;;;;;;13.10;8.53;;;0.20;54.50;;;0.69;46.65;97803.44;6235945;23;20028;-36
2022/03/05 02:25:04;;;;;;;13.33;7.67;;;0.10;54.40;;;0.67;47.13;97804.47;6234899;23;20034;-36
2022/03/05 02:27:32;;;;;;;15.03;8.80;;;0.20;54.40;;;0.68;46.67;97808.75;6234873;23;20034;-36
2022/03/05 02:30:00;;;;;;;15.27;8.30;;;0.10;54.50;;;0.64;46.95;97813.38;6235468;23;20018;-36
2022/03/05 02:32:28;;;;;;;14.10;8.40;;;0.10;54.40;;;0.59;47.48;97805.78;6208946;23;20011;-37
2022/03/05 02:34:56;;;;;;;14.87;9.03;;;0.00;54.20;;;0.58;46.78;97809.34;6235339;23;20070;-36
2022/03/05 02:37:23;;;;;;;17.33;9.30;;;0.10;54.70;;;0.58;47.14;97806.75;6236568;23;20012;-37
2022/03/05 02:39:51;;;;;;;12.77;7.97;;;0.00;54.40;;;0.54;47.69;97800.00;6235112;23;20050;-36
2022/03/05 02:42:19;;;;;;;18.10;9.63;;;0.00;54.60;;;0.50;47.81;97803.72;6236292;23;20034;-36
2022/03/05 02:44:47;;;;;;;13.77;9.03;;;0.00;54.70;;;0.47;47.30;97797.84;6235703;23;20310;-36
2022/03/05 02:47:15;;;;;;;16.43;9.27;;;-0.10;55.20;;;0.46;47.06;97802.22;6234842;23;20027;-37
2022/03/05 02:49:43;;;;;;;16.50;9.47;;;-0.10;55.00;;;0.47;46.93;97797.84;6235850;23;20027;-36
2022/03/05 02:52:11;;;;;;;16.20;8.23;;;-0.10;55.00;;;0.48;47.25;97802.16;6236806;23;20020;-36
2022/03/05 02:54:39;;;;;;;14.37;7.80;;;0.00;54.80;;;0.45;47.22;97794.50;6236243;23;20198;-36
2022/03/05 02:57:08;;;;;;;12.93;8.53;;;0.00;54.80;;;0.45;46.95;97800.56;6235140;23;20012;-36
2022/03/05 02:59:35;;;;;;;12.73;7.07;;;0.00;54.90;;;0.47;47.20;97790.00;6236199;23;20028;-36
2022/03/05 03:02:03;;;;;;;15.43;8.13;;;0.00;54.90;;;0.47;47.12;97793.44;6236136;23;20343;-37
2022/03/05 03:04:31;;;;;;;14.87;8.73;;;0.00;54.90;;;0.50;47.02;97801.09;6208140;23;20046;-37
2022/03/05 03:06:59;;;;;;;15.53;8.47;;;0.00;54.70;;;0.48;47.11;97800.34;6234937;23;20321;-36
2022/03/05 03:09:28;;;;;;;14.50;8.43;;;0.00;55.10;;;0.46;47.88;97801.41;6235732;23;20012;-36
2022/03/05 03:11:56;;;;;;;14.57;7.47;;;0.00;55.00;;;0.46;47.80;97802.22;6233596;23;20019;-37
2022/03/05 03:14:24;;;;;;;14.57;8.80;;;0.00;55.20;;;0.43;47.35;97804.19;6207128;23;20016;-36
2022/03/05 03:16:51;;;;;;;13.50;8.07;;;-0.10;55.10;;;0.44;47.34;97798.88;6235759;23;20213;-36
2022/03/05 03:19:19;;;;;;;20.33;7.73;;;0.00;55.30;;;0.45;47.79;97804.97;6234617;23;20221;-36
2022/03/05 03:21:47;;;;;;;14.30;8.17;;;-0.10;55.00;;;0.38;47.18;97802.69;6234894;23;20034;-36
2022/03/05 03:24:15;;;;;;;11.50;7.40;;;-0.10;55.20;;;0.35;47.19;97802.91;6235023;23;20020;-36
2022/03/05 03:26:45;;;;;;;15.47;8.00;;;-0.10;55.30;;;0.35;47.48;97802.03;6235711;23;20024;-36
2022/03/05 03:29:13;;;;;;;12.33;7.03;;;-0.10;55.60;;;0.34;47.58;97805.63;6235251;23;20028;-36
2022/03/05 03:31:41;;;;;;;14.83;7.77;;;-0.10;55.70;;;0.33;47.30;97801.28;6235437;23;20020;-37
2022/03/05 03:34:09;;;;;;;14.43;8.37;;;-0.20;55.60;;;0.31;47.92;97804.03;6235517;23;20360;-37
2022/03/05 03:36:37;;;;;;;14.17;8.60;;;-0.20;55.60;;;0.27;47.73;97802.53;6235401;23;20317;-37
2022/03/05 03:39:05;;;;;;;13.70;7.80;;;-0.20;56.10;;;0.27;47.64;97802.53;6235147;23;20020;-37
2022/03/05 03:41:33;;;;;;;13.47;7.53;;;-0.20;55.90;;;0.24;47.93;97807.94;6236446;23;20024;-37
2022/03/05 03:44:01;;;;;;;14.30;9.13;;;-0.20;56.10;;;0.23;48.09;97806.25;6234037;23;20024;-37
2022/03/05 03:46:30;;;;;;;16.53;8.77;;;-0.30;56.30;;;0.23;48.13;97803.63;6235426;23;20199;-36
2022/03/05 03:48:58;;;;;;;17.50;9.17;;;-0.20;56.40;;;0.22;48.61;97814.22;6207603;23;20016;-36
2022/03/05 03:51:26;;;;;;;15.53;9.10;;;-0.30;56.70;;;0.23;48.51;97811.50;6235235;23;20018;-36
2022/03/05 03:53:59;;;;;;;20.33;10.37;;;-0.20;56.80;;;0.22;48.64;97809.00;6244842;23;20026;-36
2022/03/05 03:56:26;;;;;;;20.30;10.90;;;-0.30;56.60;;;0.18;48.61;97809.16;6234136;23;20024;-37
2022/03/05 03:58:54;;;;;;;20.17;10.17;;;-0.30;56.80;;;0.15;49.03;97803.25;6235407;23;20523;-37
2022/03/05 04:01:22;;;;;;;18.23;10.10;;;-0.40;57.00;;;0.13;49.01;97810.38;6234435;23;20184;-37
2022/03/05 04:03:50;;;;;;;16.33;8.83;;;-0.40;57.20;;;0.15;48.69;97814.56;6233835;23;20024;-36
2022/03/05 04:06:18;;;;;;;13.50;9.07;;;-0.40;57.40;;;0.13;49.03;97816.44;6235760;23;20016;-37
2022/03/05 04:08:46;;;;;;;20.03;9.80;;;-0.40;57.20;;;0.13;48.47;97813.00;6234388;23;20015;-36
2022/03/05 04:11:18;;;;;;;18.07;9.93;;;-0.40;57.20;;;0.13;48.62;97813.00;6235375;23;20024;-37
2022/03/05 04:13:47;;;;;;;17.27;10.07;;;-0.30;57.30;;;0.09;48.82;97811.50;6243880;23;20012;-37
2022/03/05 04:16:15;;;;;;;19.07;9.60;;;-0.40;57.10;;;0.07;49.27;97814.19;6244573;23;20234;-36
2022/03/05 04:18:43;;;;;;;16.40;9.13;;;-0.40;57.40;;;0.09;48.67;97817.56;6233596;23;20199;-37
2022/03/05 04:21:10;;;;;;;14.03;8.87;;;-0.40;57.10;;;0.12;48.88;97817.38;6209395;23;20083;-37
2022/03/05 04:23:38;;;;;;;18.03;10.33;;;-0.30;57.30;;;0.14;48.75;97806.84;6234593;23;20023;-37
2022/03/05 04:26:06;;;;;;;22.80;11.53;;;-0.30;57.20;;;0.13;49.10;97810.38;6233707;23;20016;-37
2022/03/05 04:28:34;;;;;;;19.17;9.80;;;-0.30;56.90;;;0.11;48.41;97812.25;6233873;23;20187;-37
2022/03/05 04:31:02;;;;;;;20.57;10.37;;;-0.30;57.00;;;0.06;48.20;97809.03;6235645;23;20038;-37
2022/03/05 04:33:30;;;;;;;19.77;9.60;;;-0.40;57.00;;;0.05;49.15;97816.06;6235292;23;20336;-37
2022/03/05 04:35:57;;;;;;;19.20;10.80;;;-0.40;57.00;;;0.03;48.70;97806.63;6235036;23;20019;-42
2022/03/05 04:38:25;;;;;;;15.63;9.37;;;-0.50;57.40;;;0.01;48.85;97814.56;6234694;23;20162;-37
2022/03/05 04:40:54;;;;;;;19.57;10.03;;;-0.50;57.50;;;0.02;48.60;97813.66;6207991;23;20024;-37
2022/03/05 04:43:22;;;;;;;17.80;8.73;;;-0.40;57.00;;;0.04;48.65;97822.25;6235682;23;20339;-37
2022/03/05 04:45:50;;;;;;;18.03;9.73;;;-0.40;57.20;;;0.00;48.78;97825.97;6234497;23;20331;-37
2022/03/05 04:48:18;;;;;;;18.33;9.70;;;-0.50;57.10;;;0.02;48.81;97820.63;6232937;23;20027;-37
2022/03/05 04:50:48;;;;;;;16.77;10.23;;;-0.40;57.30;;;-0.01;49.13;97827.72;6208797;23;20197;-37
2022/03/05 04:53:19;;;;;;;16.97;9.47;;;-0.50;57.50;;;-0.06;49.38;97827.19;6244406;23;20190;-37
2022/03/05 04:55:50;;;;;;;17.80;8.70;;;-0.50;57.50;;;-0.09;49.06;97831.75;6231153;23;20031;-37
2022/03/05 04:58:18;;;;;;;17.50;9.80;;;-0.60;57.70;;;-0.12;48.94;97830.13;6236420;23;20201;-37
2022/03/05 05:00:47;;;;;;;18.27;9.13;;;-0.60;57.90;;;-0.13;49.26;97833.72;6236668;23;20022;-37
2022/03/05 05:03:15;;;;;;;18.27;9.57;;;-0.60;57.60;;;-0.14;49.61;97839.03;6236189;23;20022;-37
2022/03/05 05:05:43;;;;;;;18.93;9.80;;;-0.60;57.60;;;-0.16;49.68;97833.88;6237048;23;20024;-36
2022/03/05 05:08:11;;;;;;;19.13;10.30;;;-0.70;58.30;;;-0.20;49.45;97827.13;6236058;23;20330;-37
2022/03/05 05:10:39;;;;;;;18.33;11.20;;;-0.70;57.70;;;-0.24;49.48;97833.47;6233711;23;20210;-37
2022/03/05 05:13:06;;;;;;;22.40;12.43;;;-0.80;57.80;;;-0.26;49.12;97835.34;6237349;23;20237;-37
2022/03/05 05:15:35;;;;;;;23.83;14.37;;;-0.70;57.70;;;-0.28;49.62;97829.38;6236819;23;20526;-37
2022/03/05 05:18:03;;;;;;;21.27;11.50;;;-0.70;57.80;;;-0.29;49.80;97835.50;6235771;23;20012;-37
2022/03/05 05:20:31;;;;;;;17.80;9.37;;;-0.70;57.70;;;-0.27;49.19;97837.13;6236368;23;20042;-37
2022/03/05 05:22:59;;;;;;;20.20;8.90;;;-0.80;57.60;;;-0.28;49.74;97840.66;6208039;23;20030;-37
2022/03/05 05:25:27;;;;;;;14.20;8.53;;;-0.70;57.90;;;-0.30;49.32;97833.84;6235752;23;20537;-37
2022/03/05 05:27:56;;;;;;;17.80;8.90;;;-0.80;57.90;;;-0.30;49.69;97839.91;6235302;23;20023;-37
2022/03/05 05:30:23;;;;;;;13.47;8.27;;;-0.70;58.10;;;-0.27;49.63;97844.97;6208517;23;20008;-37
2022/03/05 05:32:51;;;;;;;14.93;7.33;;;-0.70;57.90;;;-0.27;49.72;97844.13;6238130;23;20026;-37
2022/03/05 05:35:20;;;;;;;15.60;7.77;;;-0.70;58.20;;;-0.26;49.45;97848.44;6236124;23;20019;-37
2022/03/05 05:37:48;;;;;;;12.00;7.50;;;-0.70;58.30;;;-0.30;49.46;97858.22;6235998;23;20357;-37
2022/03/05 05:40:16;;;;;;;15.77;7.27;;;-0.80;58.10;;;-0.31;49.46;97853.94;6234767;23;20042;-37
2022/03/05 05:42:44;;;;;;;14.63;7.80;;;-0.80;58.20;;;-0.36;49.69;97853.34;6236597;23;20015;-37
2022/03/05 05:45:12;;;;;;;11.47;7.90;;;-0.80;58.00;;;-0.35;49.45;97860.28;6209647;23;20020;-37
2022/03/05 05:47:40;;;;;;;14.13;8.33;;;-0.80;57.90;;;-0.36;49.89;97865.59;6233801;23;20016;-37
2022/03/05 05:50:08;;;;;;;19.07;9.07;;;-0.80;58.30;;;-0.36;49.27;97866.44;6235838;23;20212;-37
2022/03/05 05:52:38;;;;;;;15.90;8.73;;;-0.80;58.30;;;-0.38;49.41;97875.31;6237691;23;20008;-37
2022/03/05 05:55:06;;;;;;;20.13;10.03;;;-0.80;58.50;;;-0.42;49.28;97872.03;6236854;23;20020;-37
2022/03/05 05:57:34;;;;;;;18.63;9.33;;;-0.90;58.30;;;-0.43;50.15;97870.31;6235815;23;20018;-37
2022/03/05 06:00:04;;;;;;;15.27;8.17;;;-0.90;58.70;;;-0.44;50.02;97879.13;6236520;23;20019;-37
2022/03/05 06:02:39;;;;;;;17.63;10.03;;;-0.90;59.00;;;-0.42;49.73;97875.47;6246080;23;20332;-37
2022/03/05 06:05:07;;;;;;;15.97;8.63;;;-0.90;58.70;;;-0.40;49.44;97880.63;6236212;23;20389;-37
2022/03/05 06:07:36;;;;;;;21.37;10.17;;;-0.90;58.80;;;-0.40;49.82;97883.25;6234661;23;20020;-37
2022/03/05 06:10:04;;;;;;;23.53;12.43;;;-0.90;58.80;;;-0.42;50.06;97874.63;6208130;23;20195;-37
2022/03/05 06:12:32;;;;;;;29.53;13.83;;;-0.90;58.80;;;-0.46;49.96;97886.22;6235415;23;20012;-37
2022/03/05 06:15:00;;;;;;;33.00;15.70;;;-1.00;58.60;;;-0.48;50.04;97890.69;6236093;23;20023;-37
2022/03/05 06:17:28;;;;;;;35.80;16.80;;;-0.90;58.90;;;-0.51;50.57;97886.44;6234121;23;20016;-37
2022/03/05 06:19:56;;;;;;;28.93;14.13;;;-1.00;59.10;;;-0.50;50.66;97893.38;6234705;23;20012;-37
2022/03/05 06:22:24;;;;;;;19.30;12.00;;;-1.00;59.20;;;-0.47;49.93;97887.97;6209354;23;20032;-37
2022/03/05 06:24:51;;;;;;;17.77;10.77;;;-0.90;59.60;;;-0.46;50.23;97896.66;6235630;23;20022;-37
2022/03/05 06:27:20;;;;;;;18.10;10.37;;;-0.90;60.20;;;-0.46;50.54;97897.50;6235875;23;20028;-37
2022/03/05 06:29:48;;;;;;;18.67;9.97;;;-0.90;59.80;;;-0.44;50.41;97894.81;6235449;23;20016;-37
2022/03/05 06:32:15;;;;;;;16.90;9.57;;;-0.90;59.70;;;-0.42;50.63;97896.41;6237078;23;20020;-37
2022/03/05 06:34:43;;;;;;;19.33;9.53;;;-0.80;59.90;;;-0.41;50.50;97900.72;6235767;23;20020;-37
2022/03/05 06:37:11;;;;;;;17.07;8.80;;;-0.80;59.80;;;-0.38;50.68;97901.47;6235329;23;20012;-37
2022/03/05 06:39:39;;;;;;;16.23;8.77;;;-0.80;59.80;;;-0.34;50.69;97897.75;6235361;23;20026;-37
2022/03/05 06:42:07;;;;;;;18.90;8.57;;;-0.80;60.80;;;-0.35;51.02;97896.91;6235805;23;20042;-37
2022/03/05 06:44:35;;;;;;;12.47;7.30;;;-0.80;60.70;;;-0.31;50.81;97911.50;6235598;23;20020;-37
2022/03/05 06:47:05;;;;;;;13.50;7.70;;;-0.80;61.00;;;-0.29;50.68;97914.00;6235089;23;20016;-37
2022/03/05 06:49:33;;;;;;;15.50;8.10;;;-0.70;60.60;;;-0.27;51.58;97920.88;6234792;23;20030;-37
2022/03/05 06:52:01;;;;;;;14.97;7.83;;;-0.70;60.80;;;-0.23;50.98;97919.75;6234684;23;20018;-37
2022/03/05 06:54:29;;;;;;;13.20;7.30;;;-0.60;60.30;;;-0.18;51.07;97919.47;6235062;23;20020;-37
2022/03/05 06:56:57;;;;;;;18.83;7.80;;;-0.60;60.60;;;-0.15;51.41;97923.72;6234155;23;20020;-37
2022/03/05 06:59:24;;;;;;;15.37;7.87;;;-0.50;60.50;;;-0.12;51.42;97928.75;6234780;23;20393;-37
2022/03/05 07:01:52;;;;;;;15.50;8.70;;;-0.50;60.60;;;-0.08;51.08;97930.25;6235303;23;20442;-37
2022/03/05 07:04:21;;;;;;;14.97;8.37;;;-0.50;60.80;;;-0.05;51.22;97933.56;6235030;23;20016;-37
2022/03/05 07:06:48;;;;;;;16.07;8.33;;;-0.50;60.80;;;-0.03;51.32;97929.06;6235071;23;20246;-37
2022/03/05 07:09:16;;;;;;;14.77;8.47;;;-0.50;60.70;;;-0.02;51.97;97928.16;6233772;23;20016;-37
2022/03/05 07:11:44;;;;;;;19.87;8.70;;;-0.40;61.00;;;0.01;51.56;97923.66;6234464;23;20016;-38
2022/03/05 07:14:12;;;;;;;20.50;9.53;;;-0.40;60.90;;;0.04;51.74;97926.09;6234858;23;20026;-37
2022/03/05 07:16:39;;;;;;;26.40;8.53;;;-0.40;61.00;;;0.07;51.45;97928.56;6207931;23;20024;-37
2022/03/05 07:19:07;;;;;;;16.20;8.87;;;-0.30;61.10;;;0.09;51.84;97930.13;6235923;23;20012;-37
2022/03/05 07:21:41;;;;;;;17.17;8.37;;;-0.30;61.00;;;0.13;51.40;97930.81;6234924;23;20417;-37
2022/03/05 07:24:08;;;;;;;19.63;9.37;;;-0.30;61.00;;;0.16;52.04;97936.72;6235513;23;20031;-37
2022/03/05 07:26:37;;;;;;;18.60;9.17;;;-0.20;61.40;;;0.18;52.27;97932.22;6235557;23;20028;-38
2022/03/05 07:29:06;;;;;;;22.93;9.53;;;-0.20;61.60;;;0.23;51.64;97928.50;6235044;23;20023;-38
2022/03/05 07:31:34;;;;;;;17.40;8.80;;;-0.20;61.60;;;0.25;51.69;97927.47;6235715;23;20018;-38
2022/03/05 07:34:02;;;;;;;20.13;8.53;;;-0.20;61.30;;;0.27;52.08;97933.47;6235426;23;20201;-38
2022/03/05 07:36:30;;;;;;;14.73;8.70;;;-0.10;61.50;;;0.30;51.63;97937.69;6235389;23;20201;-38
2022/03/05 07:38:58;;;;;;;17.80;9.53;;;-0.10;61.70;;;0.31;52.35;97934.13;6234438;23;20185;-38
2022/03/05 07:41:25;;;;;;;20.27;9.30;;;-0.10;62.10;;;0.36;51.94;97939.94;6235600;23;20019;-38
2022/03/05 07:43:53;;;;;;;16.07;9.17;;;0.00;61.60;;;0.41;52.45;97934.41;6235637;23;20020;-37
2022/03/05 07:46:21;;;;;;;17.43;9.87;;;0.00;62.30;;;0.42;52.22;97930.88;6235049;23;20321;-37
2022/03/05 07:48:49;;;;;;;37.40;17.17;;;0.00;61.80;;;0.45;52.66;97928.94;6233576;23;20324;-37
2022/03/05 07:51:17;;;;;;;31.87;14.77;;;0.10;61.70;;;0.50;51.85;97937.34;6235195;23;20020;-38
2022/03/05 07:53:45;;;;;;;24.47;13.80;;;0.10;62.10;;;0.53;52.21;97942.41;6234244;23;20214;-38
2022/03/05 07:56:13;;;;;;;20.30;11.43;;;0.20;61.50;;;0.56;52.63;97931.75;6232994;23;20019;-38
2022/03/05 07:58:42;;;;;;;17.30;9.70;;;0.20;61.20;;;0.59;51.97;97936.78;6235188;23;20020;-38
2022/03/05 08:01:09;;;;;;;18.87;10.00;;;0.30;60.70;;;0.65;51.73;97932.97;6235949;23;20012;-38
2022/03/05 08:03:38;;;;;;;16.57;9.13;;;0.30;60.60;;;0.68;52.12;97940.66;6234971;23;20039;-38
2022/03/05 08:06:06;;;;;;;16.63;9.57;;;0.30;60.50;;;0.71;51.61;97940.44;6234277;23;20187;-38
2022/03/05 08:08:33;;;;;;;18.13;9.27;;;0.40;60.40;;;0.76;52.34;97938.41;6234573;23;20016;-37
2022/03/05 08:11:03;;;;;;;18.73;9.33;;;0.40;60.30;;;0.83;51.92;97940.66;6235007;23;20024;-37
2022/03/05 08:13:31;;;;;;;17.77;9.20;;;0.50;60.50;;;0.88;52.19;97946.47;6235287;23;20026;-38
2022/03/05 08:15:59;;;;;;;22.03;9.67;;;0.60;60.50;;;0.93;52.20;97949.63;6235181;23;20020;-37
2022/03/05 08:18:27;;;;;;;19.20;9.63;;;0.70;60.50;;;0.98;52.02;97947.59;6234492;23;20031;-37
2022/03/05 08:20:54;;;;;;;18.53;10.23;;;0.70;60.50;;;1.04;52.73;97954.22;6234215;23;20027;-37
2022/03/05 08:23:22;;;;;;;18.50;10.47;;;0.70;60.70;;;1.05;52.37;97954.16;6235345;23;20386;-38
2022/03/05 08:25:50;;;;;;;18.40;10.00;;;0.80;60.20;;;1.13;52.45;97956.28;6233045;23;20028;-38
2022/03/05 08:28:20;;;;;;;21.13;10.37;;;0.90;60.00;;;1.17;52.78;97952.53;6234333;23;20016;-37
2022/03/05 08:30:48;;;;;;;14.47;9.83;;;0.90;60.10;;;1.24;52.54;97955.63;6235972;23;20205;-38
2022/03/05 08:33:17;;;;;;;18.60;10.13;;;1.00;60.00;;;1.31;52.23;97955.13;6236568;23;20209;-37
2022/03/05 08:35:46;;;;;;;17.47;9.53;;;1.10;59.90;;;1.36;51.70;97958.31;6236065;23;20194;-37
2022/03/05 08:38:14;;;;;;;20.30;10.10;;;1.10;59.60;;;1.45;51.82;97956.06;6236026;23;20015;-37
2022/03/05 08:40:43;;;;;;;18.37;9.57;;;1.20;59.50;;;1.50;51.81;97964.50;6234101;23;20024;-37
2022/03/05 08:43:10;;;;;;;22.13;10.30;;;1.30;59.30;;;1.57;51.71;97957.91;6237582;23;20391;-38
2022/03/05 08:45:39;;;;;;;20.63;11.63;;;1.30;59.00;;;1.63;51.72;97961.91;6236577;23;20020;-38
2022/03/05 08:48:07;;;;;;;16.77;10.20;;;1.40;58.50;;;1.68;51.55;97957.22;6236511;23;20016;-37
2022/03/05 08:50:36;;;;;;;20.10;10.23;;;1.40;58.20;;;1.72;51.23;97958.72;6235894;23;20028;-37
2022/03/05 08:53:04;;;;;;;20.23;10.67;;;1.50;58.10;;;1.78;51.40;97953.06;6236349;23;20023;-37
2022/03/05 08:55:33;;;;;;;18.30;10.70;;;1.50;58.10;;;1.83;51.57;97951.00;6209664;23;20034;-37
2022/03/05 08:58:02;;;;;;;21.07;11.63;;;1.60;58.00;;;1.88;51.23;97954.19;6237681;23;20018;-37
2022/03/05 09:00:31;;;;;;;16.67;9.30;;;1.60;57.90;;;1.93;51.37;97957.31;6234283;23;20013;-37
2022/03/05 09:03:00;;;;;;;19.37;10.33;;;1.70;57.80;;;1.96;51.25;97953.69;6235933;23;20020;-37
2022/03/05 09:05:29;;;;;;;20.97;12.03;;;1.70;57.80;;;2.03;51.72;97956.72;6235533;23;20292;-37
2022/03/05 09:07:57;;;;;;;19.30;11.63;;;1.80;58.10;;;2.08;50.65;97954.66;6236174;23;20043;-37
2022/03/05 09:10:24;;;;;;;26.80;11.77;;;1.90;57.40;;;2.13;50.60;97953.41;6236153;23;20325;-37
2022/03/05 09:12:52;;;;;;;17.50;9.00;;;2.00;57.10;;;2.18;51.20;97945.22;6236137;23;20329;-37
2022/03/05 09:15:20;;;;;;;18.90;10.53;;;2.00;57.20;;;2.26;51.14;97945.53;6234705;23;20016;-37
2022/03/05 09:17:48;;;;;;;19.27;10.43;;;2.10;56.90;;;2.31;50.79;97943.47;6234841;23;20030;-37
2022/03/05 09:20:17;;;;;;;16.00;10.50;;;2.10;56.70;;;2.38;50.67;97943.06;6234532;23;20016;-37
2022/03/05 09:22:45;;;;;;;21.13;10.23;;;2.20;56.70;;;2.41;50.68;97937.59;6236797;23;20030;-37
2022/03/05 09:25:13;;;;;;;20.40;10.83;;;2.20;56.30;;;2.48;50.67;97936.22;6236581;23;20028;-37
2022/03/05 09:27:41;;;;;;;20.30;10.27;;;2.30;56.50;;;2.53;50.85;97937.59;6234770;23;20024;-37
2022/03/05 09:30:10;;;;;;;16.37;10.03;;;2.40;56.40;;;2.59;50.30;97935.50;6235977;23;20030;-37
2022/03/05 09:32:38;;;;;;;16.13;9.23;;;2.40;56.40;;;2.65;49.92;97937.72;6236362;23;20016;-37
2022/03/05 09:35:06;;;;;;;22.07;11.20;;;2.50;55.90;;;2.71;50.30;97932.03;6209218;23;20020;-37
2022/03/05 09:37:34;;;;;;;17.20;10.00;;;2.60;56.00;;;2.75;50.28;97937.00;6235264;23;20019;-37
2022/03/05 09:40:12;;;;;;;16.87;9.13;;;2.60;56.10;;;2.80;49.81;97927.94;6235962;23;20214;-37
2022/03/05 09:42:42;;;;;;;17.83;9.40;;;2.60;55.20;;;2.85;49.72;97936.34;6235933;23;20016;-37
2022/03/05 09:45:12;;;;;;;15.43;8.97;;;2.70;55.10;;;2.90;49.68;97936.88;6234501;23;20340;-37
2022/03/05 09:47:43;;;;;;;16.63;9.83;;;2.70;55.00;;;2.90;49.84;97923.72;6235845;23;20016;-37
2022/03/05 09:50:11;;;;;;;18.33;10.00;;;2.70;54.40;;;2.93;49.62;97936.69;6234240;23;20030;-37
2022/03/05 09:52:39;;;;;;;17.53;9.90;;;2.80;54.70;;;2.99;49.79;97932.78;6236092;23;20125;-37
2022/03/05 09:55:08;;;;;;;16.53;9.33;;;2.80;54.70;;;3.05;49.34;97937.63;6235047;23;20026;-37
2022/03/05 09:57:36;;;;;;;14.20;9.07;;;2.90;54.70;;;3.10;49.22;97927.59;6234467;23;20030;-37
2022/03/05 10:00:06;;;;;;;18.87;9.57;;;2.90;54.20;;;3.15;48.95;97923.69;6209197;23;20018;-37
2022/03/05 10:02:34;;;;;;;17.90;10.10;;;3.00;53.80;;;3.18;48.74;97930.56;6235918;23;20019;-37
2022/03/05 10:05:27;;;;;;;17.87;9.10;;;3.00;53.40;;;3.24;48.29;97927.47;6236359;23;20019;-37
2022/03/05 10:08:20;;;;;;;14.83;9.20;;;3.10;52.00;;;3.30;47.95;97918.31;6245990;23;20016;-37
2022/03/05 10:10:59;;;;;;;15.07;9.17;;;3.20;51.40;;;3.34;48.49;97917.97;6236299;23;20030;-37
2022/03/05 10:13:30;;;;;;;16.80;9.30;;;3.20;52.30;;;3.39;48.08;97915.00;6220344;23;20305;-37
2022/03/05 10:16:05;;;;;;;14.83;8.40;;;3.20;52.50;;;3.44;47.92;97917.31;6235626;23;20176;-37
2022/03/05 10:18:39;;;;;;;12.80;7.67;;;3.20;52.00;;;3.47;47.34;97915.31;6245409;23;20369;-37
2022/03/05 10:21:09;;;;;;;14.10;7.97;;;3.30;51.70;;;3.52;47.47;97920.25;6220807;23;20012;-38
2022/03/05 10:23:42;;;;;;;12.43;6.60;;;3.30;51.30;;;3.60;47.25;97917.06;6209477;23;20347;-37